ELY383 LLBG-LIRF
Flight info
| Callsign | ELY383 |
|---|---|
| Flight time | N/A |
| Altitude | 34000 |
| Route | SUVAS L53 ANIDE DCT UVRIT DCT KUGGI DCT TIGRA DCT EKTOL DCT AMSOR DCT TEA DCT SIPRO DCT LAT |
| Aircraft | B738/M-SDE2E3FGHIJ1LORVWXY/LB1 |
Departure
| Time | N/A |
|---|---|
| Airport | Ben Gurion International Airport (LLBG) |
Arrival
| Time | 2026-05-03 20:40 |
|---|---|
| Airport | Rome–Fiumicino Leonardo da Vinci International Airport (LIRF) |
| Time | Latitude | Longitude | Altitude | Speed | Heading |
|---|---|---|---|---|---|
| 2026-05-03 20:15 | 41.32087 | 14.21304 | 30744 ft | 426 kts | 291° |
| 2026-05-03 20:15 | 41.32981 | 14.17541 | 30510 ft | 427 kts | 291° |
| 2026-05-03 20:15 | 41.33876 | 14.13772 | 30273 ft | 428 kts | 291° |
| 2026-05-03 20:15 | 41.34927 | 14.10078 | 29979 ft | 425 kts | 298° |
| 2026-05-03 20:16 | 41.36401 | 14.06656 | 29566 ft | 427 kts | 305° |
| 2026-05-03 20:16 | 41.38045 | 14.03323 | 28875 ft | 430 kts | 305° |
| 2026-05-03 20:16 | 41.39703 | 13.99997 | 28265 ft | 433 kts | 305° |
| 2026-05-03 20:16 | 41.41357 | 13.96672 | 27711 ft | 437 kts | 305° |
| 2026-05-03 20:17 | 41.43037 | 13.93272 | 27135 ft | 441 kts | 305° |
| 2026-05-03 20:17 | 41.44725 | 13.89835 | 26560 ft | 445 kts | 304° |
| 2026-05-03 20:17 | 41.46420 | 13.86363 | 25979 ft | 448 kts | 304° |
| 2026-05-03 20:17 | 41.48125 | 13.82856 | 25422 ft | 451 kts | 304° |
| 2026-05-03 20:18 | 41.49826 | 13.79348 | 24829 ft | 447 kts | 304° |
| 2026-05-03 20:18 | 41.51500 | 13.75889 | 24249 ft | 440 kts | 303° |
| 2026-05-03 20:18 | 41.53139 | 13.72498 | 23670 ft | 431 kts | 303° |
| 2026-05-03 20:18 | 41.54754 | 13.69155 | 23040 ft | 425 kts | 303° |
| 2026-05-03 20:19 | 41.56344 | 13.65859 | 22468 ft | 419 kts | 303° |
| 2026-05-03 20:19 | 41.57912 | 13.62608 | 21923 ft | 413 kts | 303° |
| 2026-05-03 20:19 | 41.59458 | 13.59398 | 21358 ft | 409 kts | 303° |
| 2026-05-03 20:19 | 41.60974 | 13.56249 | 20790 ft | 405 kts | 303° |
| 2026-05-03 20:20 | 41.62490 | 13.53095 | 20266 ft | 401 kts | 303° |
| 2026-05-03 20:20 | 41.63989 | 13.49974 | 19759 ft | 397 kts | 303° |
| 2026-05-03 20:20 | 41.65471 | 13.46887 | 19260 ft | 393 kts | 303° |
| 2026-05-03 20:20 | 41.66940 | 13.43822 | 18748 ft | 389 kts | 303° |
| 2026-05-03 20:21 | 41.68395 | 13.40783 | 18221 ft | 386 kts | 303° |
| 2026-05-03 20:21 | 41.69837 | 13.37767 | 17686 ft | 383 kts | 303° |
| 2026-05-03 20:21 | 41.71266 | 13.34777 | 17178 ft | 379 kts | 303° |
| 2026-05-03 20:21 | 41.72668 | 13.31841 | 16990 ft | 368 kts | 303° |
| 2026-05-03 20:22 | 41.74021 | 13.29003 | 16820 ft | 357 kts | 303° |
| 2026-05-03 20:22 | 41.75335 | 13.26245 | 16669 ft | 346 kts | 303° |
| 2026-05-03 20:22 | 41.76609 | 13.23569 | 16525 ft | 336 kts | 303° |
| 2026-05-03 20:22 | 41.77845 | 13.20971 | 16395 ft | 326 kts | 303° |
| 2026-05-03 20:23 | 41.79048 | 13.18439 | 16252 ft | 317 kts | 303° |
| 2026-05-03 20:23 | 41.80218 | 13.15975 | 16056 ft | 311 kts | 303° |
| 2026-05-03 20:23 | 41.81375 | 13.13538 | 15745 ft | 309 kts | 303° |
| 2026-05-03 20:23 | 41.82528 | 13.11107 | 15438 ft | 307 kts | 303° |
| 2026-05-03 20:24 | 41.83669 | 13.08697 | 15135 ft | 305 kts | 303° |
| 2026-05-03 20:24 | 41.84805 | 13.06298 | 14825 ft | 304 kts | 303° |
| 2026-05-03 20:24 | 41.85934 | 13.03911 | 14515 ft | 303 kts | 303° |
| 2026-05-03 20:24 | 41.87060 | 13.01528 | 14212 ft | 302 kts | 303° |
| 2026-05-03 20:25 | 41.87802 | 12.99956 | 14008 ft | 301 kts | 303° |
| 2026-05-03 20:25 | 41.88924 | 12.97580 | 13663 ft | 300 kts | 303° |
| 2026-05-03 20:25 | 41.90405 | 12.94440 | 13227 ft | 299 kts | 303° |
| 2026-05-03 20:25 | 41.91514 | 12.92085 | 12906 ft | 298 kts | 303° |
| 2026-05-03 20:26 | 41.92617 | 12.89742 | 12596 ft | 296 kts | 303° |
| 2026-05-03 20:26 | 41.93359 | 12.88165 | 12389 ft | 295 kts | 303° |
| 2026-05-03 20:26 | 41.94436 | 12.85873 | 12095 ft | 293 kts | 302° |
| 2026-05-03 20:26 | 41.95523 | 12.83561 | 11795 ft | 292 kts | 302° |
| 2026-05-03 20:27 | 41.96604 | 12.81257 | 11496 ft | 290 kts | 302° |
| 2026-05-03 20:27 | 41.97677 | 12.78969 | 11190 ft | 289 kts | 302° |
| 2026-05-03 20:27 | 41.98745 | 12.76691 | 10900 ft | 288 kts | 302° |
| 2026-05-03 20:27 | 41.99810 | 12.74418 | 10611 ft | 287 kts | 302° |
| 2026-05-03 20:28 | 42.00871 | 12.72151 | 10314 ft | 285 kts | 302° |
| 2026-05-03 20:28 | 42.01927 | 12.69892 | 10017 ft | 284 kts | 302° |
| 2026-05-03 20:28 | 42.02979 | 12.67641 | 9693 ft | 283 kts | 302° |
| 2026-05-03 20:28 | 42.04025 | 12.65401 | 9383 ft | 282 kts | 302° |
| 2026-05-03 20:29 | 42.05072 | 12.63156 | 8977 ft | 285 kts | 302° |
| 2026-05-03 20:29 | 42.06124 | 12.60901 | 8658 ft | 284 kts | 302° |
| 2026-05-03 20:29 | 42.07172 | 12.58650 | 8348 ft | 283 kts | 302° |
| 2026-05-03 20:29 | 42.08213 | 12.56414 | 8040 ft | 282 kts | 302° |
| 2026-05-03 20:30 | 42.09252 | 12.54180 | 7744 ft | 281 kts | 302° |
| 2026-05-03 20:30 | 42.10276 | 12.51978 | 7451 ft | 280 kts | 302° |
| 2026-05-03 20:30 | 42.11307 | 12.49759 | 7170 ft | 279 kts | 301° |
| 2026-05-03 20:30 | 42.12335 | 12.47542 | 6886 ft | 279 kts | 301° |
| 2026-05-03 20:31 | 42.13363 | 12.45326 | 6599 ft | 278 kts | 301° |
| 2026-05-03 20:31 | 42.14383 | 12.43126 | 6398 ft | 273 kts | 301° |
| 2026-05-03 20:31 | 42.15372 | 12.40991 | 6263 ft | 265 kts | 301° |
| 2026-05-03 20:31 | 42.16337 | 12.38907 | 6138 ft | 258 kts | 301° |
| 2026-05-03 20:32 | 42.17271 | 12.36888 | 6029 ft | 250 kts | 301° |
| 2026-05-03 20:32 | 42.18075 | 12.34852 | 5905 ft | 242 kts | 283° |
| 2026-05-03 20:32 | 42.18131 | 12.32620 | 5701 ft | 239 kts | 257° |
| 2026-05-03 20:32 | 42.17691 | 12.30450 | 5468 ft | 240 kts | 251° |
| 2026-05-03 20:33 | 42.17175 | 12.28337 | 5240 ft | 240 kts | 250° |
| 2026-05-03 20:33 | 42.16654 | 12.26198 | 4999 ft | 240 kts | 251° |
| 2026-05-03 20:33 | 42.16150 | 12.24088 | 4880 ft | 234 kts | 251° |
| 2026-05-03 20:33 | 42.15655 | 12.21996 | 4612 ft | 234 kts | 251° |
| 2026-05-03 20:34 | 42.14973 | 12.20033 | 4362 ft | 232 kts | 227° |
| 2026-05-03 20:34 | 42.13670 | 12.18835 | 4154 ft | 227 kts | 199° |
| 2026-05-03 20:34 | 42.12155 | 12.18279 | 3914 ft | 226 kts | 192° |
| 2026-05-03 20:34 | 42.10615 | 12.17840 | 3670 ft | 226 kts | 192° |
| 2026-05-03 20:35 | 42.09158 | 12.17426 | 3440 ft | 227 kts | 192° |
| 2026-05-03 20:35 | 42.07621 | 12.17006 | 3197 ft | 228 kts | 186° |
| 2026-05-03 20:35 | 42.06061 | 12.17267 | 3093 ft | 225 kts | 166° |
| 2026-05-03 20:35 | 42.04536 | 12.17820 | 3004 ft | 228 kts | 165° |
| 2026-05-03 20:36 | 42.03027 | 12.18416 | 2938 ft | 222 kts | 164° |
| 2026-05-03 20:36 | 42.01592 | 12.19012 | 2852 ft | 211 kts | 163° |
| 2026-05-03 20:36 | 42.00204 | 12.19596 | 2755 ft | 208 kts | 163° |
| 2026-05-03 20:36 | 41.98866 | 12.20158 | 2646 ft | 199 kts | 163° |
| 2026-05-03 20:37 | 41.97579 | 12.20699 | 2607 ft | 190 kts | 164° |
| 2026-05-03 20:37 | 41.96310 | 12.21231 | 2499 ft | 193 kts | 164° |
| 2026-05-03 20:37 | 41.95026 | 12.21769 | 2260 ft | 191 kts | 164° |
| 2026-05-03 20:37 | 41.93801 | 12.22285 | 2015 ft | 178 kts | 164° |
| 2026-05-03 20:38 | 41.92668 | 12.22761 | 1815 ft | 163 kts | 164° |
| 2026-05-03 20:38 | 41.91586 | 12.23215 | 1568 ft | 161 kts | 164° |
| 2026-05-03 20:38 | 41.90526 | 12.23660 | 1359 ft | 159 kts | 164° |
| 2026-05-03 20:38 | 41.89473 | 12.24102 | 1143 ft | 159 kts | 164° |
| 2026-05-03 20:39 | 41.88428 | 12.24546 | 844 ft | 157 kts | 164° |
| 2026-05-03 20:39 | 41.87402 | 12.24980 | 644 ft | 156 kts | 164° |
| 2026-05-03 20:39 | 41.86376 | 12.25408 | 428 ft | 153 kts | 164° |
| 2026-05-03 20:39 | 41.85359 | 12.25839 | 218 ft | 153 kts | 163° |
| 2026-05-03 20:40 | 41.84349 | 12.26260 | 29 ft | 150 kts | 162° |
| 2026-05-03 20:40 | 41.83470 | 12.26621 | 12 ft | 104 kts | 162° |
| 2026-05-03 20:40 | 41.82962 | 12.26832 | 13 ft | 58 kts | 164° |
| 2026-05-03 20:40 | 41.82692 | 12.26861 | 10 ft | 34 kts | 188° |
| 2026-05-03 20:41 | 41.82526 | 12.26816 | 10 ft | 20 kts | 193° |
| 2026-05-03 20:41 | 41.82405 | 12.26782 | 10 ft | 17 kts | 187° |
| 2026-05-03 20:41 | 41.82291 | 12.26793 | 10 ft | 16 kts | 165° |
| 2026-05-03 20:41 | 41.82186 | 12.26836 | 12 ft | 15 kts | 162° |
| 2026-05-03 20:42 | 41.82085 | 12.26879 | 10 ft | 15 kts | 162° |
| 2026-05-03 20:42 | 41.81989 | 12.26919 | 11 ft | 14 kts | 163° |
| 2026-05-03 20:42 | 41.81888 | 12.26961 | 11 ft | 19 kts | 162° |
| 2026-05-03 20:42 | 41.81741 | 12.27023 | 11 ft | 23 kts | 162° |
| 2026-05-03 20:43 | 41.81593 | 12.27085 | 11 ft | 22 kts | 163° |
| 2026-05-03 20:43 | 41.81448 | 12.27145 | 11 ft | 21 kts | 162° |
| 2026-05-03 20:43 | 41.81308 | 12.27204 | 11 ft | 21 kts | 162° |
| 2026-05-03 20:43 | 41.81173 | 12.27260 | 13 ft | 20 kts | 163° |
| 2026-05-03 20:44 | 41.81042 | 12.27315 | 13 ft | 19 kts | 163° |
| 2026-05-03 20:44 | 41.80915 | 12.27348 | 12 ft | 18 kts | 182° |
| 2026-05-03 20:44 | 41.80791 | 12.27323 | 12 ft | 18 kts | 188° |
| 2026-05-03 20:44 | 41.80683 | 12.27273 | 13 ft | 16 kts | 223° |
| 2026-05-03 20:45 | 41.80634 | 12.27146 | 12 ft | 15 kts | 249° |
| 2026-05-03 20:45 | 41.80600 | 12.27021 | 14 ft | 14 kts | 251° |
| 2026-05-03 20:45 | 41.80565 | 12.26894 | 12 ft | 15 kts | 250° |
| 2026-05-03 20:45 | 41.80527 | 12.26758 | 15 ft | 16 kts | 250° |
| 2026-05-03 20:46 | 41.80487 | 12.26614 | 16 ft | 17 kts | 249° |
| 2026-05-03 20:46 | 41.80446 | 12.26463 | 15 ft | 17 kts | 250° |
| 2026-05-03 20:46 | 41.80403 | 12.26306 | 14 ft | 19 kts | 249° |
| 2026-05-03 20:46 | 41.80358 | 12.26142 | 15 ft | 18 kts | 250° |
| 2026-05-03 20:47 | 41.80314 | 12.25984 | 15 ft | 18 kts | 249° |
| 2026-05-03 20:47 | 41.80274 | 12.25840 | 13 ft | 15 kts | 250° |
| 2026-05-03 20:47 | 41.80238 | 12.25707 | 15 ft | 15 kts | 250° |
| 2026-05-03 20:47 | 41.80204 | 12.25584 | 13 ft | 14 kts | 249° |
| 2026-05-03 20:48 | 41.80169 | 12.25460 | 13 ft | 14 kts | 250° |
| 2026-05-03 20:48 | 41.80133 | 12.25324 | 13 ft | 17 kts | 250° |
| 2026-05-03 20:48 | 41.80098 | 12.25177 | 13 ft | 16 kts | 259° |
| 2026-05-03 20:48 | 41.80106 | 12.25032 | 13 ft | 15 kts | 280° |
| 2026-05-03 20:49 | 41.80107 | 12.24893 | 13 ft | 15 kts | 260° |
| 2026-05-03 20:49 | 41.80078 | 12.24767 | 13 ft | 14 kts | 248° |
| 2026-05-03 20:49 | 41.80047 | 12.24650 | 12 ft | 13 kts | 250° |
| 2026-05-03 20:49 | 41.80013 | 12.24530 | 12 ft | 14 kts | 250° |
| 2026-05-03 20:50 | 41.79981 | 12.24414 | 14 ft | 13 kts | 249° |
| 2026-05-03 20:50 | 41.79952 | 12.24311 | 14 ft | 10 kts | 249° |
| 2026-05-03 20:50 | 41.79919 | 12.24257 | 13 ft | 8 kts | 184° |
| 2026-05-03 20:50 | 41.79870 | 12.24281 | 13 ft | 7 kts | 155° |
| 2026-05-03 20:51 | 41.79826 | 12.24312 | 14 ft | 7 kts | 142° |
| 2026-05-03 20:51 | 41.79790 | 12.24355 | 13 ft | 7 kts | 152° |
| 2026-05-03 20:51 | 41.79746 | 12.24379 | 13 ft | 7 kts | 159° |
| 2026-05-03 20:51 | 41.79702 | 12.24400 | 13 ft | 7 kts | 167° |
| 2026-05-03 20:52 | 41.79675 | 12.24377 | 14 ft | 4 kts | 238° |
| 2026-05-03 20:52 | 41.79664 | 12.24342 | 15 ft | 4 kts | 249° |
| 2026-05-03 20:52 | 41.79656 | 12.24312 | 13 ft | 3 kts | 249° |
| 2026-05-03 20:52 | 41.79651 | 12.24296 | 13 ft | 1 kts | 249° |
| 2026-05-03 20:53 | 41.79651 | 12.24295 | 13 ft | 0 kts | 249° |